createdAt,value
2022-10-12T00:00:27.422Z,95.50
2022-10-12T00:02:56.113Z,95.50
2022-10-12T00:05:24.944Z,95.50
2022-10-12T00:07:53.705Z,95.60
2022-10-12T00:10:22.474Z,95.70
2022-10-12T00:12:51.454Z,95.80
2022-10-12T00:15:21.717Z,95.90
2022-10-12T00:17:50.431Z,95.90
2022-10-12T00:20:19.324Z,96.10
2022-10-12T00:22:48.095Z,96.20
2022-10-12T00:25:17.174Z,96.30
2022-10-12T00:27:46.543Z,96.40
2022-10-12T00:30:15.504Z,96.60
2022-10-12T00:32:45.882Z,96.70
2022-10-12T00:35:14.808Z,96.90
2022-10-12T00:37:43.519Z,97.10
2022-10-12T00:40:13.349Z,97.20
2022-10-12T00:42:42.129Z,97.30
2022-10-12T00:45:11.750Z,97.50
2022-10-12T00:47:43.158Z,97.60
2022-10-12T00:50:16.206Z,97.70
2022-10-12T00:52:50.090Z,97.80
2022-10-12T00:55:21.566Z,97.90
2022-10-12T00:57:53.052Z,98.00
2022-10-12T01:00:22.748Z,98.00
2022-10-12T01:02:54.536Z,98.10
2022-10-12T01:05:25.151Z,98.20
2022-10-12T01:07:53.902Z,98.20
2022-10-12T01:10:22.695Z,98.30
2022-10-12T01:12:51.980Z,98.30
2022-10-12T01:15:20.976Z,98.40
2022-10-12T01:18:01.637Z,98.50
2022-10-12T01:20:47.607Z,98.60
2022-10-12T01:23:44.439Z,98.60
2022-10-12T01:26:40.847Z,98.70
2022-10-12T01:29:23.203Z,98.70
2022-10-12T01:31:59.368Z,98.70
2022-10-12T01:34:49.752Z,98.80
2022-10-12T01:37:29.331Z,98.80
2022-10-12T01:40:02.003Z,98.90
2022-10-12T01:42:35.698Z,98.90
2022-10-12T01:45:06.504Z,99.00
2022-10-12T01:47:37.910Z,99.10
2022-10-12T01:50:11.124Z,99.20
2022-10-12T01:52:48.861Z,99.20
2022-10-12T01:55:29.184Z,99.30
2022-10-12T01:58:17.937Z,99.40
2022-10-12T02:00:56.063Z,99.50
2022-10-12T02:03:33.371Z,99.60
2022-10-12T02:06:05.088Z,99.60
2022-10-12T02:09:01.354Z,99.60
2022-10-12T02:11:30.958Z,99.70
2022-10-12T02:14:04.964Z,99.80
2022-10-12T02:16:39.205Z,99.90
2022-10-12T02:19:13.067Z,99.90
2022-10-12T02:21:43.677Z,99.90
2022-10-12T02:24:33.747Z,99.90
2022-10-12T02:27:03.303Z,99.90
2022-10-12T02:29:38.176Z,99.90
2022-10-12T02:32:12.814Z,99.90
2022-10-12T02:34:47.099Z,99.90
2022-10-12T02:37:30.659Z,99.90
2022-10-12T02:40:08.509Z,99.90
2022-10-12T02:43:08.649Z,99.90
2022-10-12T02:45:34.475Z,99.90
2022-10-12T02:48:04.233Z,99.90
2022-10-12T02:50:35.829Z,99.90
2022-10-12T02:53:05.888Z,99.90
2022-10-12T02:55:39.758Z,99.90
2022-10-12T02:58:08.524Z,99.90
2022-10-12T03:00:37.462Z,99.90
2022-10-12T03:03:06.141Z,99.90
2022-10-12T03:05:36.456Z,99.90
2022-10-12T03:08:05.645Z,99.90
2022-10-12T03:10:34.347Z,99.90
2022-10-12T03:13:03.118Z,99.90
2022-10-12T03:15:32.611Z,99.90
2022-10-12T03:18:01.345Z,99.90
2022-10-12T03:20:30.288Z,99.90
2022-10-12T03:23:00.510Z,99.90
2022-10-12T03:25:29.385Z,99.90
2022-10-12T03:27:58.048Z,99.90
2022-10-12T03:30:26.887Z,99.90
2022-10-12T03:32:55.682Z,99.90
2022-10-12T03:35:24.542Z,99.90
2022-10-12T03:37:53.320Z,99.90
2022-10-12T03:40:23.514Z,99.90
2022-10-12T03:42:52.298Z,99.90
2022-10-12T03:45:20.952Z,99.90
2022-10-12T03:47:49.686Z,99.90
2022-10-12T03:50:18.750Z,99.90
2022-10-12T03:52:47.534Z,99.90
2022-10-12T03:55:16.518Z,99.90
2022-10-12T03:57:47.114Z,99.90
2022-10-12T04:00:16.622Z,99.90
2022-10-12T04:02:45.289Z,99.90
2022-10-12T04:05:14.049Z,99.90
2022-10-12T04:07:42.748Z,99.90
2022-10-12T04:10:11.660Z,99.90
2022-10-12T04:12:40.407Z,99.90
2022-10-12T04:15:11.458Z,99.90
2022-10-12T04:17:40.885Z,99.90
2022-10-12T04:20:12.820Z,99.90
2022-10-12T04:22:43.053Z,99.90
2022-10-12T04:25:13.649Z,99.90
2022-10-12T04:27:42.705Z,99.90
2022-10-12T04:30:14.358Z,99.90
2022-10-12T04:32:43.263Z,99.90
2022-10-12T04:35:30.948Z,99.90
2022-10-12T04:37:59.867Z,99.90
2022-10-12T04:40:28.816Z,99.90
2022-10-12T04:42:57.483Z,99.90
2022-10-12T04:45:27.727Z,99.90
2022-10-12T04:47:56.521Z,99.90
2022-10-12T04:50:29.805Z,99.90
2022-10-12T04:52:59.045Z,99.90
2022-10-12T04:55:28.157Z,99.90
2022-10-12T04:57:56.864Z,99.90
2022-10-12T05:00:27.142Z,99.90
2022-10-12T05:02:55.885Z,99.90
2022-10-12T05:05:24.642Z,99.90
2022-10-12T05:07:53.386Z,99.90
2022-10-12T05:10:22.270Z,99.90
2022-10-12T05:12:51.042Z,99.90
2022-10-12T05:15:19.803Z,99.90
2022-10-12T05:17:50.040Z,99.90
2022-10-12T05:20:18.965Z,99.90
2022-10-12T05:22:47.665Z,99.90
2022-10-12T05:25:16.680Z,99.90
2022-10-12T05:27:45.586Z,99.90
2022-10-12T05:30:14.583Z,99.90
2022-10-12T05:32:44.583Z,99.90
2022-10-12T05:35:15.146Z,99.90
2022-10-12T05:37:43.986Z,99.90
2022-10-12T05:40:13.058Z,99.90
2022-10-12T05:42:41.930Z,99.90
2022-10-12T05:45:12.086Z,99.90
2022-10-12T05:47:42.293Z,99.90
2022-10-12T05:50:11.777Z,99.90
2022-10-12T05:52:41.890Z,99.90
2022-10-12T05:55:11.293Z,99.90
2022-10-12T05:57:40.055Z,99.90
2022-10-12T06:00:11.138Z,99.90
2022-10-12T06:02:40.271Z,99.90
2022-10-12T06:05:09.700Z,99.90
2022-10-12T06:07:38.569Z,99.90
2022-10-12T06:10:09.987Z,99.90
2022-10-12T06:12:38.939Z,99.90
2022-10-12T06:15:09.516Z,99.90
2022-10-12T06:17:38.209Z,99.90
2022-10-12T06:20:07.938Z,99.90
2022-10-12T06:22:36.983Z,99.90
2022-10-12T06:25:06.831Z,99.90
2022-10-12T06:27:37.080Z,99.90
2022-10-12T06:30:07.196Z,99.90
2022-10-12T06:32:36.700Z,99.90
2022-10-12T06:35:06.196Z,99.90
2022-10-12T06:37:49.691Z,99.90
2022-10-12T06:40:19.642Z,99.90
2022-10-12T06:42:54.860Z,99.90
2022-10-12T06:45:26.351Z,99.90
2022-10-12T06:47:55.176Z,99.90
2022-10-12T06:50:23.901Z,99.90
2022-10-12T06:52:52.830Z,99.90
2022-10-12T06:55:21.821Z,99.90
2022-10-12T06:57:51.973Z,99.90
2022-10-12T07:00:20.737Z,99.90
2022-10-12T07:02:51.370Z,99.90
2022-10-12T07:05:21.268Z,99.90
2022-10-12T07:07:50.075Z,99.90
2022-10-12T07:10:18.983Z,99.90
2022-10-12T07:12:48.008Z,99.90
2022-10-12T07:15:18.280Z,99.90
2022-10-12T07:17:47.008Z,99.90
2022-10-12T07:20:15.783Z,99.90
2022-10-12T07:22:44.783Z,99.90
2022-10-12T07:25:13.513Z,99.90
2022-10-12T07:27:42.323Z,99.90
2022-10-12T07:30:13.222Z,99.90
2022-10-12T07:32:44.708Z,99.90
2022-10-12T07:35:13.493Z,99.90
2022-10-12T07:37:42.447Z,99.90
2022-10-12T07:40:11.820Z,99.90
2022-10-12T07:43:05.206Z,99.90
2022-10-12T07:45:29.821Z,99.90
2022-10-12T07:48:00.073Z,99.90
2022-10-12T07:50:28.898Z,99.90
2022-10-12T07:52:57.607Z,99.90
2022-10-12T07:55:26.309Z,99.70
2022-10-12T07:57:55.053Z,99.40
2022-10-12T08:00:23.935Z,99.00
2022-10-12T08:02:52.778Z,98.50
2022-10-12T08:05:23.439Z,97.80
2022-10-12T08:07:53.423Z,97.20
2022-10-12T08:10:22.594Z,96.90
2022-10-12T08:12:52.381Z,96.70
2022-10-12T08:15:21.346Z,96.20
2022-10-12T08:17:50.081Z,95.60
2022-10-12T08:20:18.949Z,95.10
2022-10-12T08:23:07.959Z,94.40
2022-10-12T08:25:38.189Z,94.00
2022-10-12T08:28:07.661Z,93.60
2022-10-12T08:30:36.375Z,92.70
2022-10-12T08:33:10.155Z,91.90
2022-10-12T08:35:57.838Z,91.50
2022-10-12T08:38:27.939Z,91.10
2022-10-12T08:41:26.459Z,90.00
2022-10-12T08:44:16.174Z,88.30
2022-10-12T08:46:45.143Z,86.90
2022-10-12T08:49:18.385Z,86.40
2022-10-12T08:51:51.282Z,86.50
2022-10-12T08:54:24.162Z,86.40
2022-10-12T08:56:55.541Z,86.40
2022-10-12T08:59:26.290Z,86.70
2022-10-12T09:02:05.987Z,86.10
2022-10-12T09:04:47.072Z,85.50
2022-10-12T09:07:21.396Z,83.90
2022-10-12T09:10:04.150Z,83.50
2022-10-12T09:12:45.668Z,82.40
2022-10-12T09:15:20.094Z,81.70
2022-10-12T09:17:53.693Z,81.40
2022-10-12T09:20:24.057Z,81.10
2022-10-12T09:22:55.125Z,81.20
2022-10-12T09:25:27.542Z,81.20
2022-10-12T09:28:07.732Z,79.50
2022-10-12T09:30:43.217Z,78.40
2022-10-12T09:33:21.425Z,77.50
2022-10-12T09:35:51.308Z,76.70
2022-10-12T09:38:21.676Z,76.20
2022-10-12T09:40:52.103Z,74.50
2022-10-12T09:43:21.142Z,73.30
2022-10-12T09:45:49.955Z,72.80
2022-10-12T09:48:21.232Z,71.80
2022-10-12T09:50:53.871Z,69.90
2022-10-12T09:53:35.166Z,66.90
2022-10-12T09:56:10.698Z,65.00
2022-10-12T09:59:03.575Z,64.00
2022-10-12T10:01:33.362Z,62.00
2022-10-12T10:04:15.287Z,59.60
2022-10-12T10:06:46.346Z,58.40
2022-10-12T10:09:32.677Z,58.10
2022-10-12T10:12:22.422Z,56.70
2022-10-12T10:14:53.056Z,56.10
2022-10-12T10:17:27.246Z,56.60
2022-10-12T10:19:57.722Z,56.90
2022-10-12T10:22:27.191Z,57.70
2022-10-12T10:25:00.555Z,57.80
2022-10-12T10:27:37.852Z,57.80
2022-10-12T10:30:32.505Z,56.90
2022-10-12T10:33:18.133Z,56.70
2022-10-12T10:35:58.593Z,56.90
2022-10-12T10:38:57.126Z,57.10
2022-10-12T10:41:29.733Z,56.90
2022-10-12T10:44:00.070Z,56.50
2022-10-12T10:46:32.126Z,56.00
2022-10-12T10:49:06.642Z,55.90
2022-10-12T10:51:44.886Z,55.20
2022-10-12T10:54:25.510Z,55.20
2022-10-12T10:57:00.510Z,55.70
2022-10-12T10:59:40.213Z,56.00
2022-10-12T11:02:21.740Z,55.40
2022-10-12T11:04:56.173Z,54.60
2022-10-12T11:07:31.567Z,53.90
2022-10-12T11:10:03.939Z,53.10
2022-10-12T11:12:35.658Z,52.00
2022-10-12T11:15:14.291Z,51.60
2022-10-12T11:17:47.572Z,51.20
2022-10-12T11:20:53.012Z,51.20
2022-10-12T11:23:30.175Z,51.90
2022-10-12T11:26:22.984Z,52.90
2022-10-12T11:28:52.600Z,54.10
2022-10-12T11:31:27.087Z,54.80
2022-10-12T11:34:01.430Z,53.60
2022-10-12T11:36:32.200Z,53.10
2022-10-12T11:39:07.135Z,52.90
2022-10-12T11:42:03.243Z,53.30
2022-10-12T11:44:42.042Z,54.10
2022-10-12T11:47:20.439Z,55.20
2022-10-12T11:49:55.418Z,55.00
2022-10-12T11:52:29.145Z,55.50
2022-10-12T11:55:07.272Z,55.90
2022-10-12T11:57:39.153Z,56.00
2022-10-12T12:00:18.450Z,56.20
2022-10-12T12:02:54.036Z,56.30
2022-10-12T12:05:23.048Z,56.20
2022-10-12T12:07:54.140Z,56.50
2022-10-12T12:11:05.638Z,56.80
2022-10-12T12:13:34.458Z,57.10
2022-10-12T12:16:26.464Z,57.40
2022-10-12T12:19:16.915Z,57.90
2022-10-12T12:22:20.884Z,58.00
2022-10-12T12:24:58.271Z,58.10
2022-10-12T12:27:33.365Z,58.30
2022-10-12T12:30:04.193Z,58.20
2022-10-12T12:32:46.313Z,58.40
2022-10-12T12:35:26.817Z,58.50
2022-10-12T12:38:21.935Z,59.00
2022-10-12T12:41:09.810Z,59.10
2022-10-12T12:43:55.161Z,59.20
2022-10-12T12:46:26.020Z,59.40
2022-10-12T12:49:07.570Z,59.70
2022-10-12T12:51:45.559Z,59.60
2022-10-12T12:54:19.368Z,59.90
2022-10-12T12:57:02.055Z,59.90
2022-10-12T13:00:12.126Z,60.00
2022-10-12T13:03:12.994Z,60.00
2022-10-12T13:06:26.463Z,61.10
2022-10-12T13:09:20.390Z,60.40
2022-10-12T13:12:01.142Z,60.60
2022-10-12T13:14:49.558Z,60.80
2022-10-12T13:17:50.240Z,61.10
2022-10-12T13:20:22.573Z,61.20
2022-10-12T13:22:54.916Z,61.40
2022-10-12T13:25:30.989Z,61.40
2022-10-12T13:28:01.277Z,61.40
2022-10-12T13:30:35.855Z,61.70
2022-10-12T13:33:14.073Z,61.80
2022-10-12T13:35:48.729Z,61.60
2022-10-12T13:38:23.140Z,61.40
2022-10-12T13:41:02.388Z,61.20
2022-10-12T13:43:35.466Z,61.30
2022-10-12T13:46:05.082Z,61.10
2022-10-12T13:48:58.094Z,61.10
2022-10-12T13:51:26.341Z,61.20
2022-10-12T13:53:55.083Z,61.10
2022-10-12T13:56:27.445Z,61.20
2022-10-12T13:59:19.253Z,61.50
2022-10-12T14:01:54.229Z,61.70
2022-10-12T14:04:23.368Z,62.00
2022-10-12T14:07:00.609Z,62.30
2022-10-12T14:09:32.157Z,62.50
2022-10-12T14:12:02.598Z,62.70
2022-10-12T14:14:35.071Z,62.90
2022-10-12T14:17:04.532Z,63.10
2022-10-12T14:19:42.600Z,63.10
2022-10-12T14:22:12.387Z,63.40
2022-10-12T14:24:41.633Z,63.50
2022-10-12T14:27:24.218Z,63.70
2022-10-12T14:29:58.084Z,64.00
2022-10-12T14:32:42.671Z,64.20
2022-10-12T14:35:23.548Z,64.30
2022-10-12T14:37:54.934Z,64.30
2022-10-12T14:40:42.650Z,64.50
2022-10-12T14:43:25.291Z,65.50
2022-10-12T14:45:54.237Z,64.80
2022-10-12T14:48:24.131Z,65.00
2022-10-12T14:50:52.951Z,66.00
2022-10-12T14:53:22.757Z,65.50
2022-10-12T14:55:53.882Z,65.70
2022-10-12T14:58:25.978Z,65.90
2022-10-12T15:00:55.558Z,66.20
2022-10-12T15:03:24.432Z,66.30
2022-10-12T15:05:53.278Z,66.40
2022-10-12T15:08:22.190Z,66.70
2022-10-12T15:10:52.536Z,66.90
2022-10-12T15:13:21.360Z,67.20
2022-10-12T15:15:55.113Z,67.20
2022-10-12T15:18:23.911Z,67.30
2022-10-12T15:20:52.746Z,67.20
2022-10-12T15:23:22.136Z,67.40
2022-10-12T15:25:52.946Z,67.50
2022-10-12T15:28:22.536Z,67.70
2022-10-12T15:31:16.044Z,67.90
2022-10-12T15:33:42.262Z,68.20
2022-10-12T15:36:11.858Z,68.60
2022-10-12T15:38:40.940Z,68.90
2022-10-12T15:41:17.603Z,69.10
2022-10-12T15:43:46.483Z,69.50
2022-10-12T15:46:16.839Z,69.80
2022-10-12T15:48:45.696Z,70.40
2022-10-12T15:51:20.003Z,70.80
2022-10-12T15:53:48.812Z,71.00
2022-10-12T15:56:36.343Z,71.20
2022-10-12T15:59:06.046Z,71.50
2022-10-12T16:01:38.427Z,72.00
2022-10-12T16:04:08.939Z,72.40
2022-10-12T16:06:37.728Z,72.60
2022-10-12T16:09:06.443Z,73.00
2022-10-12T16:11:35.198Z,73.40
2022-10-12T16:14:04.233Z,73.80
2022-10-12T16:16:32.979Z,74.00
2022-10-12T16:19:03.062Z,74.30
2022-10-12T16:21:32.365Z,74.80
2022-10-12T16:24:01.539Z,75.10
2022-10-12T16:26:30.306Z,75.50
2022-10-12T16:28:59.243Z,75.90
2022-10-12T16:31:28.063Z,76.10
2022-10-12T16:33:56.844Z,76.50
2022-10-12T16:36:27.086Z,76.80
2022-10-12T16:38:57.541Z,77.10
2022-10-12T16:41:29.259Z,77.20
2022-10-12T16:44:00.789Z,77.50
2022-10-12T16:46:30.799Z,77.60
2022-10-12T16:48:59.662Z,77.80
2022-10-12T16:51:29.836Z,78.10
2022-10-12T16:53:58.892Z,78.30
2022-10-12T16:56:27.827Z,78.50
2022-10-12T16:58:56.666Z,78.90
2022-10-12T17:01:25.536Z,78.90
2022-10-12T17:03:55.549Z,79.20
2022-10-12T17:06:24.318Z,79.40
2022-10-12T17:08:54.584Z,79.80
2022-10-12T17:11:23.362Z,80.10
2022-10-12T17:13:55.073Z,80.20
2022-10-12T17:16:41.316Z,80.40
2022-10-12T17:19:10.150Z,80.90
2022-10-12T17:21:42.261Z,80.90
2022-10-12T17:24:14.307Z,81.40
2022-10-12T17:26:43.677Z,82.40
2022-10-12T17:29:14.288Z,82.00
2022-10-12T17:31:43.633Z,82.40
2022-10-12T17:34:18.804Z,82.80
2022-10-12T17:36:49.003Z,83.00
2022-10-12T17:39:19.380Z,83.30
2022-10-12T17:41:48.661Z,83.50
2022-10-12T17:44:18.200Z,83.70
2022-10-12T17:46:47.982Z,84.10
2022-10-12T17:49:24.928Z,84.40
2022-10-12T17:51:54.494Z,84.60
2022-10-12T17:54:26.867Z,84.80
2022-10-12T17:56:58.283Z,85.00
2022-10-12T17:59:28.273Z,85.00
2022-10-12T18:01:57.111Z,85.10
2022-10-12T18:04:25.900Z,85.30
2022-10-12T18:06:54.552Z,85.60
2022-10-12T18:09:25.060Z,85.60
2022-10-12T18:11:54.598Z,85.60
2022-10-12T18:14:23.332Z,85.80
2022-10-12T18:16:52.424Z,85.90
2022-10-12T18:19:21.161Z,86.10
2022-10-12T18:21:49.930Z,86.70
2022-10-12T18:24:18.930Z,86.80
2022-10-12T18:26:49.637Z,87.10
2022-10-12T18:29:21.906Z,87.50
2022-10-12T18:31:50.811Z,87.90
2022-10-12T18:34:19.492Z,88.30
2022-10-12T18:36:48.362Z,88.50
2022-10-12T18:39:17.603Z,88.50
2022-10-12T18:41:46.486Z,88.70
2022-10-12T18:44:17.878Z,88.80
2022-10-12T18:46:46.667Z,88.80
2022-10-12T18:49:15.701Z,88.80
2022-10-12T18:51:48.172Z,88.80
2022-10-12T18:54:18.000Z,88.90
2022-10-12T18:56:47.373Z,89.00
2022-10-12T18:59:19.476Z,89.00
2022-10-12T19:01:48.526Z,89.70
2022-10-12T19:04:17.433Z,89.00
2022-10-12T19:06:46.233Z,88.90
2022-10-12T19:09:15.772Z,88.90
2022-10-12T19:11:44.648Z,88.80
2022-10-12T19:14:17.032Z,88.80
2022-10-12T19:16:46.200Z,88.80
2022-10-12T19:19:20.846Z,88.80
2022-10-12T19:21:50.511Z,89.00
2022-10-12T19:24:19.689Z,89.00
2022-10-12T19:26:49.293Z,89.30
2022-10-12T19:29:21.306Z,89.50
2022-10-12T19:31:52.197Z,89.90
2022-10-12T19:34:23.986Z,90.00
2022-10-12T19:36:53.300Z,90.10
2022-10-12T19:39:24.773Z,90.20
2022-10-12T19:41:53.861Z,90.30
2022-10-12T19:44:24.233Z,90.30
2022-10-12T19:46:53.794Z,90.50
2022-10-12T19:49:22.710Z,90.50
2022-10-12T19:51:51.489Z,90.60
2022-10-12T19:54:20.176Z,90.70
2022-10-12T19:56:49.101Z,90.90
2022-10-12T19:59:18.005Z,90.90
2022-10-12T20:01:48.541Z,91.00
2022-10-12T20:04:17.782Z,90.90
2022-10-12T20:06:46.597Z,90.90
2022-10-12T20:09:15.283Z,91.00
2022-10-12T20:11:44.118Z,91.00
2022-10-12T20:14:13.195Z,91.10
2022-10-12T20:16:41.956Z,91.10
2022-10-12T20:19:12.306Z,91.20
2022-10-12T20:21:41.450Z,91.20
2022-10-12T20:24:10.996Z,91.30
2022-10-12T20:26:39.802Z,91.40
2022-10-12T20:29:08.667Z,91.50
2022-10-12T20:31:37.396Z,91.50
2022-10-12T20:34:06.337Z,91.60
2022-10-12T20:36:36.544Z,91.60
2022-10-12T20:39:05.666Z,91.60
2022-10-12T20:41:34.525Z,91.70
2022-10-12T20:44:03.575Z,91.70
2022-10-12T20:46:32.518Z,91.70
2022-10-12T20:49:02.853Z,91.70
2022-10-12T20:51:33.785Z,91.90
2022-10-12T20:54:05.843Z,91.90
2022-10-12T20:56:35.349Z,92.00
2022-10-12T20:59:04.134Z,92.00
2022-10-12T21:01:33.143Z,92.40
2022-10-12T21:04:02.182Z,92.20
2022-10-12T21:06:30.840Z,92.30
2022-10-12T21:08:59.769Z,92.40
2022-10-12T21:11:30.288Z,92.40
2022-10-12T21:13:59.226Z,92.40
2022-10-12T21:16:28.392Z,92.50
2022-10-12T21:18:57.871Z,92.60
2022-10-12T21:21:27.126Z,92.60
2022-10-12T21:23:58.611Z,92.60
2022-10-12T21:26:30.431Z,92.60
2022-10-12T21:29:00.443Z,92.70
2022-10-12T21:31:32.567Z,92.70
2022-10-12T21:34:02.672Z,92.70
2022-10-12T21:36:32.536Z,92.70
2022-10-12T21:39:01.561Z,92.70
2022-10-12T21:41:32.220Z,92.80
2022-10-12T21:44:01.190Z,92.80
2022-10-12T21:46:32.178Z,92.90
2022-10-12T21:49:02.612Z,92.90
2022-10-12T21:51:33.253Z,93.00
2022-10-12T21:54:02.167Z,93.10
2022-10-12T21:56:35.336Z,93.10
2022-10-12T21:59:08.032Z,93.10
2022-10-12T22:01:38.715Z,93.20
2022-10-12T22:04:09.441Z,93.30
2022-10-12T22:06:38.221Z,93.30
2022-10-12T22:09:09.090Z,93.30
2022-10-12T22:11:39.623Z,93.30
2022-10-12T22:14:14.724Z,93.40
2022-10-12T22:16:44.591Z,93.50
2022-10-12T22:19:19.033Z,93.50
2022-10-12T22:21:49.101Z,93.50
2022-10-12T22:24:17.887Z,93.60
2022-10-12T22:26:48.397Z,93.50
2022-10-12T22:29:17.469Z,93.60
2022-10-12T22:31:46.593Z,93.60
2022-10-12T22:34:17.171Z,93.70
2022-10-12T22:36:45.962Z,93.60
2022-10-12T22:39:14.822Z,93.70
2022-10-12T22:41:47.633Z,93.70
2022-10-12T22:44:16.591Z,93.80
2022-10-12T22:46:45.391Z,93.80
2022-10-12T22:49:14.122Z,93.90
2022-10-12T22:51:42.880Z,94.10
2022-10-12T22:54:13.743Z,94.10
2022-10-12T22:56:43.986Z,94.20
2022-10-12T22:59:16.300Z,94.20
2022-10-12T23:01:45.454Z,94.20
2022-10-12T23:04:14.280Z,94.20
2022-10-12T23:06:43.102Z,94.30
2022-10-12T23:09:11.856Z,94.30
2022-10-12T23:11:40.644Z,94.40
2022-10-12T23:14:11.086Z,94.40
2022-10-12T23:16:41.295Z,94.40
2022-10-12T23:19:11.818Z,94.40
2022-10-12T23:21:40.724Z,94.40
2022-10-12T23:24:11.046Z,94.50
2022-10-12T23:26:39.933Z,94.50
2022-10-12T23:29:08.788Z,94.50
2022-10-12T23:31:37.808Z,94.50
2022-10-12T23:34:09.454Z,94.50
2022-10-12T23:36:38.772Z,94.50
2022-10-12T23:39:07.880Z,94.50
2022-10-12T23:41:36.768Z,94.60
2022-10-12T23:44:06.148Z,94.60
2022-10-12T23:46:35.234Z,94.60
2022-10-12T23:49:04.131Z,94.60
2022-10-12T23:51:34.434Z,94.70
2022-10-12T23:54:03.475Z,94.70
2022-10-12T23:56:32.381Z,94.80
2022-10-12T23:59:02.945Z,94.90
